createdAt,value
2017-11-23T00:01:23.803Z,97462.70
2017-11-23T00:03:51.320Z,97461.08
2017-11-23T00:06:18.845Z,97454.53
2017-11-23T00:08:46.360Z,97464.00
2017-11-23T00:11:13.886Z,97467.22
2017-11-23T00:13:41.399Z,97465.89
2017-11-23T00:16:08.944Z,97460.79
2017-11-23T00:18:36.457Z,97466.33
2017-11-23T00:21:03.996Z,97458.08
2017-11-23T00:23:31.507Z,97478.06
2017-11-23T00:25:59.005Z,97468.56
2017-11-23T00:28:26.544Z,97467.77
2017-11-23T00:30:54.048Z,97469.81
2017-11-23T00:33:21.639Z,97466.33
2017-11-23T00:35:49.166Z,97472.28
2017-11-23T00:38:16.698Z,97468.81
2017-11-23T00:40:44.197Z,97458.98
2017-11-23T00:43:11.716Z,97465.64
2017-11-23T00:45:39.250Z,97465.92
2017-11-23T00:48:06.781Z,97458.33
2017-11-23T00:50:34.283Z,97457.41
2017-11-23T00:53:01.800Z,97456.91
2017-11-23T00:55:29.312Z,97465.72
2017-11-23T00:57:56.816Z,97459.34
2017-11-23T01:00:24.347Z,97464.55
2017-11-23T01:02:51.879Z,97465.42
2017-11-23T01:05:19.411Z,97468.59
2017-11-23T01:07:46.933Z,97473.22
2017-11-23T01:10:14.460Z,97469.70
2017-11-23T01:12:41.990Z,97468.34
2017-11-23T01:15:09.489Z,97461.55
2017-11-23T01:17:36.983Z,97455.13
2017-11-23T01:20:04.482Z,97475.48
2017-11-23T01:22:36.873Z,97471.75
2017-11-23T01:25:04.419Z,97468.73
2017-11-23T01:27:32.030Z,97466.95
2017-11-23T01:29:59.528Z,97458.38
2017-11-23T01:32:27.052Z,97462.46
2017-11-23T01:34:54.547Z,97456.55
2017-11-23T01:37:22.031Z,97461.28
2017-11-23T01:39:49.536Z,97458.70
2017-11-23T01:42:17.038Z,97463.81
2017-11-23T01:44:44.741Z,97465.66
2017-11-23T01:47:12.250Z,97460.73
2017-11-23T01:49:39.772Z,97475.95
2017-11-23T01:52:07.279Z,97467.23
2017-11-23T01:54:34.796Z,97479.93
2017-11-23T01:57:02.298Z,97479.59
2017-11-23T01:59:29.803Z,97487.94
2017-11-23T02:01:57.325Z,97484.81
2017-11-23T02:04:24.846Z,97480.97
2017-11-23T02:06:52.381Z,97489.81
2017-11-23T02:09:19.922Z,97485.64
2017-11-23T02:11:47.604Z,97484.54
2017-11-23T02:14:15.125Z,97484.30
2017-11-23T02:16:42.624Z,97488.31
2017-11-23T02:19:10.116Z,97483.81
2017-11-23T02:21:37.631Z,97488.94
2017-11-23T02:24:05.138Z,97486.19
2017-11-23T02:26:32.930Z,97480.98
2017-11-23T02:29:00.430Z,97479.75
2017-11-23T02:31:27.962Z,97477.14
2017-11-23T02:33:55.457Z,97475.17
2017-11-23T02:36:22.990Z,97474.22
2017-11-23T02:38:50.487Z,97472.16
2017-11-23T02:41:17.995Z,97473.69
2017-11-23T02:43:45.493Z,97473.13
2017-11-23T02:46:13.004Z,97469.28
2017-11-23T02:48:40.519Z,97464.91
2017-11-23T02:51:08.031Z,97461.15
2017-11-23T02:53:35.532Z,97463.63
2017-11-23T02:56:03.035Z,97460.97
2017-11-23T02:58:30.559Z,97464.64
2017-11-23T03:00:58.137Z,97465.35
2017-11-23T03:03:28.757Z,97477.55
2017-11-23T03:05:56.249Z,97478.73
2017-11-23T03:08:23.754Z,97472.61
2017-11-23T03:10:51.262Z,97472.36
2017-11-23T03:13:18.763Z,97476.58
2017-11-23T03:15:46.281Z,97476.55
2017-11-23T03:18:13.810Z,97467.23
2017-11-23T03:20:41.330Z,97477.80
2017-11-23T03:23:08.840Z,97476.03
2017-11-23T03:25:36.361Z,97469.05
2017-11-23T03:28:03.877Z,97472.75
2017-11-23T03:30:32.408Z,97478.83
2017-11-23T03:32:59.916Z,97485.92
2017-11-23T03:35:27.412Z,97485.02
2017-11-23T03:37:54.922Z,97478.79
2017-11-23T03:40:22.444Z,97482.34
2017-11-23T03:42:49.967Z,97473.23
2017-11-23T03:45:17.489Z,97465.70
2017-11-23T03:47:44.986Z,97461.67
2017-11-23T03:50:12.473Z,97452.80
2017-11-23T03:52:39.974Z,97463.77
2017-11-23T03:55:07.478Z,97469.75
2017-11-23T03:57:35.009Z,97460.88
2017-11-23T04:00:02.523Z,97476.32
2017-11-23T04:02:30.029Z,97474.15
2017-11-23T04:04:57.539Z,97474.50
2017-11-23T04:07:25.049Z,97461.44
2017-11-23T04:09:52.550Z,97463.78
2017-11-23T04:12:20.051Z,97476.63
2017-11-23T04:14:47.562Z,97470.61
2017-11-23T04:17:15.112Z,97481.16
2017-11-23T04:19:42.647Z,97467.99
2017-11-23T04:22:10.163Z,97463.99
2017-11-23T04:24:37.675Z,97460.16
2017-11-23T04:27:05.196Z,97457.40
2017-11-23T04:29:32.723Z,97453.69
2017-11-23T04:32:00.238Z,97459.99
2017-11-23T04:34:27.763Z,97457.08
2017-11-23T04:36:55.286Z,97456.52
2017-11-23T04:39:22.790Z,97452.31
2017-11-23T04:41:50.306Z,97470.02
2017-11-23T04:44:17.814Z,97476.73
2017-11-23T04:46:45.324Z,97470.50
2017-11-23T04:49:12.838Z,97489.34
2017-11-23T04:51:40.338Z,97491.30
2017-11-23T04:54:07.849Z,97485.94
2017-11-23T04:56:35.381Z,97493.81
2017-11-23T04:59:02.899Z,97493.68
2017-11-23T05:01:30.419Z,97488.19
2017-11-23T05:03:57.925Z,97494.86
2017-11-23T05:06:25.439Z,97493.44
2017-11-23T05:08:52.962Z,97490.62
2017-11-23T05:11:20.486Z,97500.78
2017-11-23T05:13:47.982Z,97504.77
2017-11-23T05:16:15.488Z,97510.22
2017-11-23T05:18:42.988Z,97506.55
2017-11-23T05:21:10.524Z,97504.12
2017-11-23T05:23:38.083Z,97499.50
2017-11-23T05:26:05.609Z,97503.53
2017-11-23T05:28:33.118Z,97508.11
2017-11-23T05:31:00.626Z,97516.50
2017-11-23T05:33:28.129Z,97509.30
2017-11-23T05:35:55.659Z,97503.20
2017-11-23T05:38:23.176Z,97502.02
2017-11-23T05:40:50.681Z,97499.95
2017-11-23T05:43:18.184Z,97499.55
2017-11-23T05:45:45.716Z,97510.33
2017-11-23T05:48:13.210Z,97493.97
2017-11-23T05:50:40.717Z,97509.19
2017-11-23T05:53:08.218Z,97514.48
2017-11-23T05:55:35.719Z,97516.89
2017-11-23T05:58:03.232Z,97498.66
2017-11-23T06:00:30.761Z,97499.66
2017-11-23T06:02:58.273Z,97492.82
2017-11-23T06:05:25.780Z,97485.05
2017-11-23T06:07:53.270Z,97483.17
2017-11-23T06:10:20.819Z,97460.30
2017-11-23T06:12:48.318Z,97459.19
2017-11-23T06:15:15.831Z,97457.90
2017-11-23T06:17:43.332Z,97469.80
2017-11-23T06:20:10.843Z,97485.11
2017-11-23T06:22:38.358Z,97478.00
2017-11-23T06:25:05.864Z,97476.38
2017-11-23T06:27:33.412Z,97480.70
2017-11-23T06:30:00.948Z,97496.89
2017-11-23T06:32:28.469Z,97493.98
2017-11-23T06:34:55.987Z,97490.77
2017-11-23T06:37:23.527Z,97502.89
2017-11-23T06:39:51.025Z,97505.36
2017-11-23T06:42:18.632Z,97497.45
2017-11-23T06:44:46.146Z,97490.86
2017-11-23T06:47:13.703Z,97497.36
2017-11-23T06:49:41.230Z,97499.72
2017-11-23T06:52:08.759Z,97496.84
2017-11-23T06:54:36.262Z,97490.16
2017-11-23T06:57:03.850Z,97504.70
2017-11-23T06:59:31.360Z,97513.11
2017-11-23T07:01:58.857Z,97510.45
2017-11-23T07:04:26.383Z,97515.03
2017-11-23T07:06:53.908Z,97505.98
2017-11-23T07:09:21.416Z,97519.19
2017-11-23T07:11:48.937Z,97528.59
2017-11-23T07:14:16.457Z,97525.98
2017-11-23T07:16:43.997Z,97535.83
2017-11-23T07:19:11.512Z,97539.70
2017-11-23T07:21:39.023Z,97537.98
2017-11-23T07:24:06.521Z,97542.95
2017-11-23T07:26:34.038Z,97537.38
2017-11-23T07:29:01.545Z,97538.33
2017-11-23T07:31:29.050Z,97536.63
2017-11-23T07:33:56.585Z,97537.44
2017-11-23T07:36:24.094Z,97532.45
2017-11-23T07:38:51.614Z,97543.19
2017-11-23T07:41:19.118Z,97544.69
2017-11-23T07:43:46.606Z,97546.11
2017-11-23T07:46:14.117Z,97539.46
2017-11-23T07:48:41.614Z,97535.94
2017-11-23T07:51:09.130Z,97539.81
2017-11-23T07:53:36.659Z,97534.56
2017-11-23T07:56:04.228Z,97534.08
2017-11-23T07:58:31.746Z,97524.67
2017-11-23T08:00:59.263Z,97538.98
2017-11-23T08:03:26.795Z,97547.94
2017-11-23T08:05:54.291Z,97538.83
2017-11-23T08:08:21.810Z,97540.65
2017-11-23T08:10:49.417Z,97539.91
2017-11-23T08:13:16.979Z,97545.64
2017-11-23T08:15:44.495Z,97554.80
2017-11-23T08:18:12.013Z,97550.80
2017-11-23T08:20:39.554Z,97558.62
2017-11-23T08:23:07.063Z,97552.31
2017-11-23T08:25:34.580Z,97554.69
2017-11-23T08:28:02.096Z,97554.23
2017-11-23T08:30:29.600Z,97554.74
2017-11-23T08:32:57.180Z,97560.02
2017-11-23T08:35:24.677Z,97568.36
2017-11-23T08:37:52.184Z,97577.53
2017-11-23T08:40:19.696Z,97585.25
2017-11-23T08:42:47.201Z,97588.22
2017-11-23T08:45:14.708Z,97598.95
2017-11-23T08:47:42.220Z,97593.59
2017-11-23T08:50:09.735Z,97590.11
2017-11-23T08:52:37.298Z,97579.06
2017-11-23T08:55:04.790Z,97593.74
2017-11-23T08:57:32.286Z,97596.50
2017-11-23T08:59:59.785Z,97594.80
2017-11-23T09:02:27.286Z,97596.98
2017-11-23T09:04:54.791Z,97600.44
2017-11-23T09:07:22.289Z,97612.81
2017-11-23T09:09:49.776Z,97607.67
2017-11-23T09:12:17.285Z,97603.31
2017-11-23T09:14:44.788Z,97602.08
2017-11-23T09:17:12.303Z,97604.24
2017-11-23T09:19:39.813Z,97603.28
2017-11-23T09:22:07.322Z,97610.04
2017-11-23T09:24:34.956Z,97620.65
2017-11-23T09:27:02.457Z,97614.14
2017-11-23T09:29:29.959Z,97627.47
2017-11-23T09:31:57.456Z,97629.39
2017-11-23T09:34:24.988Z,97622.19
2017-11-23T09:36:52.504Z,97628.95
2017-11-23T09:39:20.018Z,97629.74
2017-11-23T09:41:47.519Z,97636.96
2017-11-23T09:44:15.074Z,97638.88
2017-11-23T09:46:42.574Z,97640.56
2017-11-23T09:49:10.087Z,97638.77
2017-11-23T09:51:37.600Z,97646.16
2017-11-23T09:54:05.118Z,97635.00
2017-11-23T09:56:32.615Z,97633.47
2017-11-23T09:59:00.137Z,97634.68
2017-11-23T10:01:27.634Z,97625.05
2017-11-23T10:03:55.143Z,97636.11
2017-11-23T10:06:22.667Z,97631.88
2017-11-23T10:08:50.168Z,97638.92
2017-11-23T10:11:17.675Z,97624.58
2017-11-23T10:13:45.180Z,97620.11
2017-11-23T10:16:12.683Z,97628.84
2017-11-23T10:18:40.191Z,97621.04
2017-11-23T10:21:07.705Z,97623.47
2017-11-23T10:23:35.212Z,97625.19
2017-11-23T10:26:02.736Z,97618.69
2017-11-23T10:28:30.242Z,97624.84
2017-11-23T10:30:57.743Z,97620.75
2017-11-23T10:33:25.254Z,97621.15
2017-11-23T10:35:52.814Z,97617.09
2017-11-23T10:38:20.360Z,97626.36
2017-11-23T10:40:47.861Z,97627.52
2017-11-23T10:43:15.359Z,97628.59
2017-11-23T10:45:42.886Z,97632.66
2017-11-23T10:48:10.520Z,97621.72
2017-11-23T10:50:38.014Z,97616.80
2017-11-23T10:53:05.530Z,97618.36
2017-11-23T10:55:33.093Z,97619.72
2017-11-23T10:58:00.599Z,97618.53
2017-11-23T11:00:28.139Z,97622.66
2017-11-23T11:02:55.634Z,97618.39
2017-11-23T11:05:23.140Z,97617.14
2017-11-23T11:07:50.644Z,97619.75
2017-11-23T11:10:18.182Z,97610.41
2017-11-23T11:12:45.693Z,97602.23
2017-11-23T11:15:13.306Z,97596.70
2017-11-23T11:17:40.813Z,97605.84
2017-11-23T11:20:08.354Z,97600.25
2017-11-23T11:22:35.921Z,97598.23
2017-11-23T11:25:03.440Z,97600.19
2017-11-23T11:27:30.955Z,97605.55
2017-11-23T11:29:58.460Z,97605.61
2017-11-23T11:32:25.980Z,97606.11
2017-11-23T11:34:53.502Z,97627.30
2017-11-23T11:37:21.033Z,97617.61
2017-11-23T11:39:48.538Z,97614.74
2017-11-23T11:42:16.143Z,97605.97
2017-11-23T11:44:43.640Z,97602.04
2017-11-23T11:47:11.155Z,97599.34
2017-11-23T11:49:38.769Z,97593.23
2017-11-23T11:52:06.295Z,97586.52
2017-11-23T11:54:33.811Z,97588.61
2017-11-23T11:57:01.333Z,97590.98
2017-11-23T11:59:28.870Z,97590.80
2017-11-23T12:01:56.376Z,97594.84
2017-11-23T12:04:23.925Z,97597.73
2017-11-23T12:06:51.441Z,97592.77
2017-11-23T12:09:18.953Z,97591.80
2017-11-23T12:11:46.507Z,97587.33
2017-11-23T12:14:25.961Z,97591.02
2017-11-23T12:17:03.426Z,97602.24
2017-11-23T12:19:42.893Z,97597.75
2017-11-23T12:25:41.374Z,97593.37
2017-11-23T12:28:20.643Z,97587.98
2017-11-23T12:30:48.139Z,97581.69
2017-11-23T12:33:15.728Z,97585.73
2017-11-23T12:35:43.227Z,97586.33
2017-11-23T12:38:10.734Z,97586.52
2017-11-23T12:40:38.256Z,97590.94
2017-11-23T12:43:05.761Z,97586.30
2017-11-23T12:45:33.260Z,97582.88
2017-11-23T12:48:00.785Z,97582.99
2017-11-23T12:50:28.320Z,97583.64
2017-11-23T12:52:55.822Z,97588.54
2017-11-23T12:55:23.345Z,97585.10
2017-11-23T12:57:50.843Z,97586.09
2017-11-23T13:00:18.352Z,97586.62
2017-11-23T13:02:45.850Z,97585.47
2017-11-23T13:05:13.352Z,97584.27
2017-11-23T13:07:40.925Z,97576.19
2017-11-23T13:10:08.507Z,97576.36
2017-11-23T13:12:36.022Z,97580.94
2017-11-23T13:15:03.564Z,97576.43
2017-11-23T13:17:31.070Z,97578.39
2017-11-23T13:19:58.571Z,97586.31
2017-11-23T13:22:26.080Z,97590.19
2017-11-23T13:24:53.637Z,97586.77
2017-11-23T13:27:21.192Z,97587.72
2017-11-23T13:29:48.748Z,97591.20
2017-11-23T13:32:16.275Z,97591.23
2017-11-23T13:34:43.794Z,97583.73
2017-11-23T13:37:11.300Z,97594.30
2017-11-23T13:39:38.790Z,97596.10
2017-11-23T13:42:06.275Z,97604.20
2017-11-23T13:44:33.799Z,97605.55
2017-11-23T13:47:01.345Z,97606.80
2017-11-23T13:49:28.839Z,97604.34
2017-11-23T13:51:56.345Z,97612.05
2017-11-23T13:54:23.844Z,97607.36
2017-11-23T13:56:51.343Z,97610.11
2017-11-23T13:59:18.883Z,97618.59
2017-11-23T14:01:46.501Z,97617.16
2017-11-23T14:04:14.024Z,97625.41
2017-11-23T14:06:41.535Z,97621.70
2017-11-23T14:09:09.063Z,97622.27
2017-11-23T14:11:36.580Z,97626.44
2017-11-23T14:14:04.077Z,97620.55
2017-11-23T14:16:31.576Z,97626.28
2017-11-23T14:18:59.074Z,97628.29
2017-11-23T14:21:26.578Z,97624.52
2017-11-23T14:23:54.076Z,97633.91
2017-11-23T14:26:21.576Z,97637.19
2017-11-23T14:28:49.086Z,97642.12
2017-11-23T14:31:16.583Z,97643.61
2017-11-23T14:33:44.093Z,97640.23
2017-11-23T14:36:11.599Z,97643.61
2017-11-23T14:41:05.895Z,97631.89
2017-11-23T14:43:33.463Z,97637.67
2017-11-23T14:46:00.974Z,97642.83
2017-11-23T14:48:28.481Z,97638.55
2017-11-23T14:50:55.991Z,97640.18
2017-11-23T14:53:23.506Z,97635.95
2017-11-23T14:55:51.032Z,97637.12
2017-11-23T14:58:18.572Z,97633.81
2017-11-23T15:00:46.072Z,97647.09
2017-11-23T15:03:13.577Z,97646.75
2017-11-23T15:05:41.070Z,97650.05
2017-11-23T15:08:08.599Z,97665.75
2017-11-23T15:10:36.141Z,97661.78
2017-11-23T15:13:03.677Z,97660.78
2017-11-23T15:15:31.170Z,97663.09
2017-11-23T15:17:58.691Z,97667.34
2017-11-23T15:20:26.207Z,97672.17
2017-11-23T15:22:53.706Z,97679.22
2017-11-23T15:25:21.224Z,97682.52
2017-11-23T15:27:48.723Z,97673.00
2017-11-23T15:30:16.245Z,97671.77
2017-11-23T15:32:43.772Z,97683.37
2017-11-23T15:35:11.285Z,97687.58
2017-11-23T15:37:38.799Z,97686.13
2017-11-23T15:40:06.303Z,97693.82
2017-11-23T15:42:33.818Z,97688.01
2017-11-23T15:45:01.324Z,97690.80
2017-11-23T15:47:28.831Z,97704.27
2017-11-23T15:49:56.323Z,97694.78
2017-11-23T15:52:23.825Z,97706.17
2017-11-23T15:54:51.336Z,97708.09
2017-11-23T15:57:18.861Z,97714.02
2017-11-23T15:59:46.375Z,97704.77
2017-11-23T16:02:13.880Z,97716.00
2017-11-23T16:04:41.389Z,97717.23
2017-11-23T16:07:08.903Z,97711.88
2017-11-23T16:09:36.413Z,97711.18
2017-11-23T16:12:03.965Z,97721.72
2017-11-23T16:14:31.603Z,97718.92
2017-11-23T16:16:59.125Z,97725.52
2017-11-23T16:19:26.634Z,97729.80
2017-11-23T16:21:54.162Z,97734.09
2017-11-23T16:24:21.662Z,97740.59
2017-11-23T16:26:49.175Z,97746.14
2017-11-23T16:29:16.710Z,97743.53
2017-11-23T16:31:44.248Z,97748.34
2017-11-23T16:34:11.750Z,97753.91
2017-11-23T16:36:41.640Z,97753.20
2017-11-23T16:39:14.655Z,97750.27
2017-11-23T16:41:59.052Z,97758.17
2017-11-23T16:47:45.098Z,97757.77
2017-11-23T16:50:27.506Z,97762.56
2017-11-23T16:53:12.540Z,97761.72
2017-11-23T16:55:45.768Z,97764.82
2017-11-23T16:58:17.703Z,97763.89
2017-11-23T17:00:50.938Z,97768.86
2017-11-23T17:06:51.331Z,97768.55
2017-11-23T17:09:34.503Z,97761.22
2017-11-23T17:12:08.086Z,97780.12
2017-11-23T17:14:41.142Z,97777.07
2017-11-23T17:17:24.339Z,97782.32
2017-11-23T17:19:51.879Z,97786.41
2017-11-23T17:22:19.394Z,97785.35
2017-11-23T17:24:46.910Z,97779.88
2017-11-23T17:27:14.412Z,97786.12
2017-11-23T17:29:41.936Z,97789.67
2017-11-23T17:32:09.446Z,97792.05
2017-11-23T17:34:36.934Z,97783.22
2017-11-23T17:37:04.431Z,97784.43
2017-11-23T17:39:31.969Z,97784.67
2017-11-23T17:41:59.465Z,97779.82
2017-11-23T17:44:26.976Z,97788.80
2017-11-23T17:46:54.479Z,97793.09
2017-11-23T17:49:21.984Z,97791.77
2017-11-23T17:51:49.544Z,97803.49
2017-11-23T17:54:17.063Z,97800.00
2017-11-23T17:56:44.573Z,97801.16
2017-11-23T17:59:12.104Z,97810.78
2017-11-23T18:01:39.619Z,97809.02
2017-11-23T18:04:07.132Z,97811.61
2017-11-23T18:06:34.659Z,97809.22
2017-11-23T18:09:02.191Z,97818.48
2017-11-23T18:11:29.712Z,97822.67
2017-11-23T18:13:57.232Z,97829.73
2017-11-23T18:16:24.747Z,97818.89
2017-11-23T18:18:52.265Z,97825.70
2017-11-23T18:21:19.788Z,97825.57
2017-11-23T18:23:47.401Z,97818.09
2017-11-23T18:26:14.907Z,97828.54
2017-11-23T18:28:42.530Z,97828.27
2017-11-23T18:31:10.068Z,97827.98
2017-11-23T18:33:37.617Z,97824.08
2017-11-23T18:36:05.121Z,97827.42
2017-11-23T18:38:32.633Z,97823.93
2017-11-23T18:41:00.143Z,97827.99
2017-11-23T18:43:27.665Z,97831.34
2017-11-23T18:45:55.209Z,97829.32
2017-11-23T18:48:22.720Z,97835.36
2017-11-23T18:50:50.263Z,97836.57
2017-11-23T18:53:17.768Z,97829.74
2017-11-23T18:55:45.285Z,97828.80
2017-11-23T18:58:12.778Z,97830.80
2017-11-23T19:00:40.297Z,97843.53
2017-11-23T19:03:07.875Z,97832.15
2017-11-23T19:05:35.441Z,97832.54
2017-11-23T19:08:02.960Z,97831.35
2017-11-23T19:10:30.508Z,97840.08
2017-11-23T19:12:58.035Z,97835.30
2017-11-23T19:15:25.579Z,97840.97
2017-11-23T19:17:53.108Z,97838.09
2017-11-23T19:20:20.673Z,97837.57
2017-11-23T19:22:48.213Z,97836.25
2017-11-23T19:25:15.740Z,97838.07
2017-11-23T19:27:43.259Z,97843.45
2017-11-23T19:30:10.784Z,97847.28
2017-11-23T19:32:38.343Z,97855.62
2017-11-23T19:35:05.859Z,97851.98
2017-11-23T19:37:33.404Z,97852.34
2017-11-23T19:40:01.008Z,97864.03
2017-11-23T19:42:28.522Z,97861.64
2017-11-23T19:44:56.035Z,97859.52
2017-11-23T19:47:23.536Z,97858.78
2017-11-23T19:49:51.065Z,97869.18
2017-11-23T19:52:18.564Z,97870.06
2017-11-23T19:54:46.063Z,97871.83
2017-11-23T19:57:13.562Z,97872.80
2017-11-23T19:59:41.110Z,97865.38
2017-11-23T20:02:08.620Z,97865.78
2017-11-23T20:04:36.143Z,97867.39
2017-11-23T20:07:03.659Z,97865.09
2017-11-23T20:09:31.204Z,97871.22
2017-11-23T20:11:58.719Z,97872.73
2017-11-23T20:14:26.263Z,97882.20
2017-11-23T20:16:53.791Z,97885.10
2017-11-23T20:19:21.330Z,97889.14
2017-11-23T20:21:48.881Z,97888.34
2017-11-23T20:24:16.380Z,97897.27
2017-11-23T20:26:44.010Z,97891.66
2017-11-23T20:29:11.669Z,97897.77
2017-11-23T20:31:39.239Z,97889.63
2017-11-23T20:34:06.750Z,97892.95
2017-11-23T20:36:34.288Z,97891.47
2017-11-23T20:39:01.906Z,97895.61
2017-11-23T20:41:29.439Z,97893.95
2017-11-23T20:43:57.338Z,97884.91
2017-11-23T20:46:24.988Z,97881.94
2017-11-23T20:48:52.522Z,97873.19
2017-11-23T20:51:20.071Z,97868.05
2017-11-23T20:53:47.592Z,97870.19
2017-11-23T20:56:15.230Z,97870.89
2017-11-23T20:58:42.731Z,97872.06
2017-11-23T21:01:10.276Z,97875.20
2017-11-23T21:03:37.820Z,97873.11
2017-11-23T21:06:05.370Z,97882.92
2017-11-23T21:08:32.911Z,97875.64
2017-11-23T21:11:00.416Z,97870.59
2017-11-23T21:13:27.922Z,97868.95
2017-11-23T21:15:55.450Z,97873.45
2017-11-23T21:18:22.988Z,97875.61
2017-11-23T21:20:50.498Z,97874.80
2017-11-23T21:23:18.025Z,97880.69
2017-11-23T21:25:45.570Z,97889.36
2017-11-23T21:28:13.087Z,97882.27
2017-11-23T21:30:40.617Z,97878.08
2017-11-23T21:33:08.150Z,97879.96
2017-11-23T21:35:35.688Z,97883.27
2017-11-23T21:38:03.215Z,97876.68
2017-11-23T21:40:30.753Z,97879.09
2017-11-23T21:42:58.270Z,97878.33
2017-11-23T21:45:25.830Z,97872.22
2017-11-23T21:47:53.340Z,97871.10
2017-11-23T21:50:20.843Z,97873.33
2017-11-23T21:52:48.347Z,97874.02
2017-11-23T21:55:15.856Z,97873.78
2017-11-23T21:57:43.364Z,97877.38
2017-11-23T22:00:10.884Z,97875.81
2017-11-23T22:02:38.392Z,97874.70
2017-11-23T22:05:05.904Z,97869.89
2017-11-23T22:07:33.415Z,97870.12
2017-11-23T22:10:00.960Z,97867.02
2017-11-23T22:12:28.459Z,97873.47
2017-11-23T22:14:55.980Z,97871.90
2017-11-23T22:17:23.478Z,97880.88
2017-11-23T22:19:51.007Z,97878.92
2017-11-23T22:22:18.521Z,97880.58
2017-11-23T22:24:46.010Z,97883.65
2017-11-23T22:27:13.552Z,97886.89
2017-11-23T22:29:41.068Z,97886.69
2017-11-23T22:32:08.575Z,97883.98
2017-11-23T22:34:36.149Z,97887.17
2017-11-23T22:37:03.667Z,97888.63
2017-11-23T22:39:31.190Z,97891.19
2017-11-23T22:41:58.707Z,97892.28
2017-11-23T22:44:26.209Z,97891.73
2017-11-23T22:46:53.706Z,97893.53
2017-11-23T22:49:21.207Z,97888.76
2017-11-23T22:51:48.710Z,97896.86
2017-11-23T22:54:16.308Z,97897.34
2017-11-23T22:56:43.823Z,97894.72
2017-11-23T22:59:11.745Z,97896.02
2017-11-23T23:01:39.296Z,97896.28
2017-11-23T23:04:06.790Z,97892.58
2017-11-23T23:06:34.310Z,97898.32
2017-11-23T23:09:01.814Z,97894.41
2017-11-23T23:11:29.344Z,97898.63
2017-11-23T23:13:56.856Z,97894.50
2017-11-23T23:16:24.347Z,97894.28
2017-11-23T23:18:51.878Z,97895.34
2017-11-23T23:21:19.379Z,97887.77
2017-11-23T23:23:46.879Z,97886.34
2017-11-23T23:26:14.383Z,97882.54
2017-11-23T23:28:41.911Z,97879.06
2017-11-23T23:31:09.416Z,97880.55
2017-11-23T23:33:36.912Z,97887.84
2017-11-23T23:36:04.407Z,97876.28
2017-11-23T23:38:32.760Z,97879.44
2017-11-23T23:41:00.337Z,97881.20
2017-11-23T23:43:27.840Z,97882.69
2017-11-23T23:45:55.355Z,97890.09
2017-11-23T23:48:22.874Z,97887.47
2017-11-23T23:50:50.402Z,97889.53
2017-11-23T23:53:17.906Z,97890.58
2017-11-23T23:55:45.432Z,97885.91
2017-11-23T23:58:12.933Z,97885.77
